Terminal Aerodrome Forecast
Issued by NWS Sterling, VA

Current Version | Previous Version | Graphics & Text | Print | Product List | Glossary Off
Versions: 1 2 3 4 5 6 7 8 9 10 11 12 13 14 15 16 17 18 19 20 21 22 23 24

022
FTUS41 KLWX 230347 AAC
TAFDCA
TAF AMD
KDCA 230347Z 2304/2324 00000KT 6SM -TSRA BR FEW008 BKN060CB OVC080
     FM230600 24006KT P6SM VCTS BKN060CB
     FM231100 26006KT P6SM BKN200
     FM232300 22007KT P6SM BKN050=

USA.gov is the U.S. government's official web portal to all federal, state and local government web resources and services.